Flight Track Log - Related Links

Times and Time Zones

All times are in EDT time to prevent confusion due to time zone crossing. See the TRS587 flight status page for this flight to view local times or setup timezone preferences in your user account.


Time Position Orientation Groundspeed Altitude Reporting Facility
EDT Latitude Longitude Course Direction KTS MPH feet Rate Location/Type
Wed 11:41:01 AM 28.4167 -81.3000 204° Southwest 158 182 800  Level Orlando TRACON
Wed 11:42:19 AM 28.3500 -81.3333 204° Southwest 236 272 3,000 1,913 Climbing Orlando TRACON
Wed 11:43:19 AM 28.3167 -81.4000 240° Southwest 279 321 5,200 2,333 Climbing Orlando TRACON
Wed 11:44:25 AM 28.3833 -81.4500 327° Northwest 291 335 7,900 2,362 Climbing Orlando TRACON
Wed 11:45:26 AM 28.4667 -81.4833 341° North 297 342 10,200 1,500 Climbing Orlando TRACON
Wed 11:47:17 AM 28.6289 -81.5231 348° North 372 428 12,200 1,404 Climbing Jacksonville Center
Wed 11:48:17 AM 28.7292 -81.5478 348° North 365 420 14,200 1,900 Climbing Jacksonville Center
Wed 11:49:17 AM 28.8361 -81.5725 349° North 371 427 16,000 1,750 Climbing Jacksonville Center
Wed 11:50:17 AM 28.9469 -81.5969 349° North 384 442 17,700 1,650 Climbing Jacksonville Center
Wed 11:51:17 AM 29.0556 -81.6242 348° North 396 456 19,300 1,600 Climbing Jacksonville Center
Wed 11:52:17 AM 29.1708 -81.6511 348° North 406 467 20,900 1,550 Climbing Jacksonville Center
Wed 11:53:17 AM 29.2964 -81.6831 347° North 416 479 22,400 1,500 Climbing Jacksonville Center
Wed 11:54:17 AM 29.4175 -81.7100 349° North 422 486 23,900 1,400 Climbing Jacksonville Center
Wed 11:55:17 AM 29.5369 -81.7372 349° North 433 498 25,200 1,350 Climbing Jacksonville Center
Wed 11:56:17 AM 29.6622 -81.7644 349° North 438 504 26,600 1,300 Climbing Jacksonville Center
Wed 11:57:17 AM 29.7836 -81.7942 348° North 443 510 27,800 1,250 Climbing Jacksonville Center
Wed 11:58:17 AM 29.9092 -81.8286 347° North 448 516 29,100 1,400 Climbing Jacksonville Center
Wed 11:59:17 AM 30.0306 -81.8633 346° North 453 521 30,600 1,300 Climbing Jacksonville Center
Wed 12:00:17 PM 30.1519 -81.9028 344° North 453 521 31,700 1,200 Climbing Jacksonville Center
Wed 12:01:17 PM 30.2756 -81.9425 344° North 453 521 33,000 650 Climbing Jacksonville Center
Wed 12:02:17 PM 30.3906 -81.9800 344° North 448 516 33,000  Level Jacksonville Center
Wed 12:03:17 PM 30.5100 -82.0197 344° North 437 503 33,000  Level Jacksonville Center
Wed 12:04:17 PM 30.6167 -82.0597 342° North 442 509 33,000  Level Jacksonville Center
Wed 12:05:17 PM 30.7358 -82.0975 345° North 442 509 33,000  Level Jacksonville Center
Wed 12:06:17 PM 30.8531 -82.1375 344° North 442 509 33,000  Level Jacksonville Center
Wed 12:07:17 PM 30.9722 -82.1753 345° North 442 509 33,000  Level Jacksonville Center
Wed 12:08:17 PM 31.0894 -82.2158 343° North 442 509 33,000  Level Jacksonville Center
Wed 12:09:17 PM 31.2086 -82.2561 344° North 442 509 33,000  Level Jacksonville Center
Wed 12:10:17 PM 31.3278 -82.2942 345° North 442 509 33,000  Level Jacksonville Center
Wed 12:11:17 PM 31.4469 -82.3275 347° North 437 503 33,000  Level Jacksonville Center
Wed 12:13:33 PM 31.7172 -82.4228 343° North 437 503 33,000  Level Atlanta Center
Wed 12:14:33 PM 31.8325 -82.4597 345° North 437 503 33,000  Level Atlanta Center
Wed 12:15:33 PM 31.9519 -82.4992 344° North 437 503 33,000  Level Atlanta Center
Wed 12:16:33 PM 32.0694 -82.5389 344° North 437 503 33,000  Level Atlanta Center
Wed 12:17:33 PM 32.1847 -82.5786 344° North 437 503 33,000 200 Level Atlanta Center
Wed 12:18:33 PM 32.3042 -82.6183 344° North 437 503 33,400 500 Climbing Atlanta Center
Wed 12:19:33 PM 32.4214 -82.6583 344° North 437 503 34,000 300 Climbing Atlanta Center
Wed 12:20:33 PM 32.5367 -82.6961 345° North 437 503 34,000  Level Atlanta Center
Wed 12:21:33 PM 32.6686 -82.7433 343° North 443 510 34,000  Level Atlanta Center
Wed 12:22:33 PM 32.7858 -82.7836 344° North 436 502 34,000  Level Atlanta Center
Wed 12:23:33 PM 32.9053 -82.8264 343° North 436 502 34,000  Level Atlanta Center
Wed 12:24:33 PM 33.0225 -82.8644 345° North 436 502 34,000  Level Atlanta Center
Wed 12:25:33 PM 33.1378 -82.9100 342° North 436 502 34,000  Level Atlanta Center
Wed 12:26:33 PM 33.2531 -82.9458 345° North 436 502 34,000  Level Atlanta Center
Wed 12:27:33 PM 33.3681 -82.9867 343° North 436 502 34,000  Level Atlanta Center
Wed 12:28:33 PM 33.4853 -83.0250 345° North 431 496 34,000  Level Atlanta Center
Wed 12:29:33 PM 33.6006 -83.0661 343° North 438 504 34,000  Level Atlanta Center
Wed 12:30:33 PM 33.7050 -83.1025 344° North 433 498 34,000  Level Atlanta Center
Wed 12:31:33 PM 33.8222 -83.1436 344° North 433 498 34,000  Level Atlanta Center
Wed 12:32:33 PM 33.9372 -83.1825 344° North 433 498 34,000  Level Atlanta Center
Wed 12:33:33 PM 34.0544 -83.2264 343° North 433 498 34,000  Level Atlanta Center
Wed 12:34:33 PM 34.1697 -83.2656 344° North 433 498 34,000  Level Atlanta Center
Wed 12:35:33 PM 34.2908 -83.3072 344° North 433 498 34,000  Level Atlanta Center
Wed 12:36:33 PM 34.3997 -83.3464 343° North 433 498 34,000  Level Atlanta Center
Wed 12:37:33 PM 34.5208 -83.3883 344° North 438 504 34,000  Level Atlanta Center
Wed 12:38:33 PM 34.6464 -83.4328 344° North 438 504 34,000  Level Atlanta Center
Wed 12:39:33 PM 34.7656 -83.4750 344° North 437 503 34,000  Level Atlanta Center
Wed 12:40:33 PM 34.8783 -83.5147 344° North 432 497 34,000  Level Atlanta Center
Wed 12:41:33 PM 34.9933 -83.5569 343° North 423 487 34,000  Level Atlanta Center
Wed 12:42:33 PM 35.1000 -83.5994 342° North 423 487 34,000  Level Atlanta Center
Wed 12:43:33 PM 35.2128 -83.6447 342° North 428 493 34,000  Level Atlanta Center
Wed 12:44:33 PM 35.3275 -83.6850 344° North 428 493 34,000  Level Atlanta Center
Wed 12:45:33 PM 35.4425 -83.7253 344° North 428 493 34,000  Level Atlanta Center
Wed 12:46:33 PM 35.5572 -83.7681 343° North 423 487 34,000  Level Atlanta Center
Wed 12:47:33 PM 35.6722 -83.8086 344° North 423 487 34,000  Level Atlanta Center
Wed 12:48:33 PM 35.7828 -83.8519 342° North 423 487 34,000  Level Atlanta Center
Wed 12:49:33 PM 35.8956 -83.8953 343° North 423 487 34,000  Level Atlanta Center
Wed 12:51:33 PM 36.0981 -84.0386 330° Northwest 421 484 34,000  Level Indianapolis Center
Wed 12:52:35 PM 36.1989 -84.1131 329° Northwest 423 487 34,000  Level Indianapolis Center
Wed 12:53:36 PM 36.3189 -84.2022 329° Northwest 422 486 34,000  Level Indianapolis Center
Wed 12:54:38 PM 36.4178 -84.2781 328° Northwest 420 483 34,000  Level Indianapolis Center
Wed 12:55:39 PM 36.5267 -84.3414 335° Northwest 420 483 34,000  Level Indianapolis Center
Wed 12:56:41 PM 36.6381 -84.3872 342° North 420 483 34,000  Level Indianapolis Center
Wed 12:57:43 PM 36.7508 -84.4336 342° North 423 487 34,000  Level Indianapolis Center
Wed 12:58:44 PM 36.8617 -84.4789 342° North 419 482 34,000  Level Indianapolis Center
Wed 12:59:46 PM 36.9661 -84.5214 342° North 422 486 34,000  Level Indianapolis Center
Wed 01:00:47 PM 37.0847 -84.5706 342° North 419 482 34,000  Level Indianapolis Center
Wed 01:01:49 PM 37.1956 -84.6158 342° North 419 482 34,000  Level Indianapolis Center
Wed 01:02:51 PM 37.3067 -84.6614 342° North 418 481 34,000  Level Indianapolis Center
Wed 01:03:52 PM 37.4350 -84.7142 342° North 414 476 34,000  Level Indianapolis Center
Wed 01:04:54 PM 37.5444 -84.7592 342° North 412 474 34,000  Level Indianapolis Center
Wed 01:05:55 PM 37.6536 -84.8061 341° North 414 476 34,000  Level Indianapolis Center
Wed 01:06:57 PM 37.7617 -84.8531 341° North 411 473 34,000  Level Indianapolis Center
Wed 01:07:59 PM 37.8728 -84.8969 343° North 414 476 34,000  Level Indianapolis Center
Wed 01:09:00 PM 37.9811 -84.9439 341° North 412 474 34,000  Level Indianapolis Center
Wed 01:10:02 PM 38.0889 -84.9900 341° North 409 471 34,000  Level Indianapolis Center
Wed 01:11:04 PM 38.2183 -85.0428 342° North 412 474 34,000  Level Indianapolis Center
Wed 01:12:05 PM 38.3267 -85.0881 342° North 411 473 34,000  Level Indianapolis Center
Wed 01:13:07 PM 38.4353 -85.1333 342° North 409 471 34,000  Level Indianapolis Center
Wed 01:14:09 PM 38.5411 -85.1808 341° North 405 466 34,000  Level Indianapolis Center
Wed 01:15:10 PM 38.6386 -85.2219 342° North 404 465 34,000  Level Indianapolis Center
Wed 01:16:12 PM 38.7664 -85.2781 341° North 406 467 34,000  Level Indianapolis Center
Wed 01:17:14 PM 38.8742 -85.3239 342° North 408 470 34,000  Level Indianapolis Center
Wed 01:18:15 PM 38.9797 -85.3700 341° North 405 466 34,000  Level Indianapolis Center
Wed 01:19:17 PM 39.0864 -85.4161 341° North 405 466 34,000 -48 Level Indianapolis Center
Wed 01:20:19 PM 39.1919 -85.4628 341° North 405 466 33,900 -1,317 Descending Indianapolis Center
Wed 01:21:20 PM 39.2992 -85.5092 341° North 407 468 31,300 -1,902 Descending Indianapolis Center
Wed 01:22:22 PM 39.4064 -85.5569 341° North 408 470 30,000 -1,161 Descending Indianapolis Center
Wed 01:23:24 PM 39.5358 -85.6131 342° North 411 473 28,900 -878 Descending Indianapolis Center
Wed 01:24:25 PM 39.6408 -85.6606 341° North 404 465 28,200 -732 Descending Indianapolis Center
Wed 01:25:27 PM 39.7450 -85.7050 342° North 399 459 27,400 -726 Descending Indianapolis Center
Wed 01:26:29 PM 39.8497 -85.7519 341° North 401 461 26,700 -683 Descending Indianapolis Center
Wed 01:27:30 PM 39.9522 -85.7972 341° North 396 456 26,000 -1,317 Descending Indianapolis Center
Wed 01:28:32 PM 40.0728 -85.8533 340° North 388 447 24,000 -916 Descending Indianapolis Center
Wed 01:29:41 PM 40.1689 -85.9094 336° Northwest 385 443 24,000  Level Chicago Center
Wed 01:30:43 PM 40.2658 -85.9661 336° Northwest 384 442 24,000 -145 Level Chicago Center
Wed 01:31:45 PM 40.3814 -86.0347 336° Northwest 383 441 23,700 -726 Descending Chicago Center
Wed 01:32:47 PM 40.4772 -86.0900 336° Northwest 379 436 22,500 -2,226 Descending Chicago Center
Wed 01:33:49 PM 40.5736 -86.1475 336° Northwest 381 438 19,100 -3,097 Descending Chicago Center
Wed 01:34:51 PM 40.6692 -86.2044 336° Northwest 381 438 16,100 -2,177 Descending Chicago Center
Wed 01:35:53 PM 40.7744 -86.2694 335° Northwest 364 419 14,600 -1,258 Descending Chicago Center
Wed 01:36:55 PM 40.8608 -86.3206 336° Northwest 348 400 13,500 -1,065 Descending Chicago Center
Wed 01:37:57 PM 40.9450 -86.3706 336° Northwest 334 384 12,400 -1,016 Descending Chicago Center
Wed 01:38:59 PM 41.0233 -86.4283 331° Northwest 327 376 11,400 -677 Descending Chicago Center
Wed 01:40:01 PM 41.0792 -86.5083 313° West 291 335 11,000 -677 Descending Chicago Center
Wed 01:41:03 PM 41.1389 -86.5958 312° West 313 360 10,000 -343 Descending Chicago Center
Wed 01:42:56 PM 41.2631 -86.7747 313° West 325 374 10,000 -387 Level Indianapolis Center
Wed 01:44:09 PM 41.3208 -86.8692 309° West 288 331 8,800 -1,467 Descending Chicago Center
Wed 01:45:11 PM 41.3722 -86.9428 313° West 274 315 6,700 -1,355 Descending Chicago Center
Wed 01:46:13 PM 41.4306 -87.0328 311° West 270 311 6,000 -339 Descending Chicago Center
Wed 01:47:15 PM 41.4811 -87.1064 313° West 269 310 6,000 -242 Level Chicago Center
Wed 01:48:17 PM 41.5189 -87.1892 301° West 267 307 5,500 -484 Descending Chicago Center
Wed 01:49:19 PM 41.5394 -87.2825 286° West 266 306 5,000 -726 Descending Chicago Center
Wed 01:50:21 PM 41.5611 -87.3736 288° West 260 299 4,000 -484 Descending Chicago Center
Wed 01:51:23 PM 41.5850 -87.4792 287° West 256 295 4,000  Level Chicago Center
Wed 01:52:25 PM 41.6361 -87.5442 316° Northwest 258 297 4,000 -194 Level Chicago Center
Wed 01:53:27 PM 41.6786 -87.6036 314° West 239 275 3,600 -726 Descending Chicago Center
Wed 01:54:29 PM 41.7169 -87.6575 314° West 219 252 2,500 -968 Descending Chicago Center
Wed 01:55:31 PM 41.7458 -87.6986 313° West 184 212 1,600 -726 Descending Chicago Center
Wed 01:56:33 PM 41.7706 -87.7317 315° West 149 171 1,000 -581 Descending Chicago Center

Login

Don't have an account? Register now (free) for customized features, flight alerts, and more!